sensor_id;sensor_type;location;lat;lon;timestamp;pressure;altitude;pressure_sealevel;temperature;humidity
20037;BME280;10179;42.640;23.312;2023-02-20T00:01:13;93959.16;;;14.21;40.26
20037;BME280;10179;42.640;23.312;2023-02-20T00:03:38;93988.00;;;14.39;40.41
20037;BME280;10179;42.640;23.312;2023-02-20T00:06:04;94001.28;;;14.44;40.56
20037;BME280;10179;42.640;23.312;2023-02-20T00:08:29;94001.75;;;14.41;40.63
20037;BME280;10179;42.640;23.312;2023-02-20T00:10:55;93998.56;;;14.39;40.72
20037;BME280;10179;42.640;23.312;2023-02-20T00:13:20;94000.63;;;14.37;40.86
20037;BME280;10179;42.640;23.312;2023-02-20T00:15:45;93997.41;;;14.35;40.96
20037;BME280;10179;42.640;23.312;2023-02-20T00:18:11;93994.25;;;14.33;41.15
20037;BME280;10179;42.640;23.312;2023-02-20T00:20:36;93922.16;;;13.87;41.23
20037;BME280;10179;42.640;23.312;2023-02-20T00:23:02;93969.88;;;14.14;41.43
20037;BME280;10179;42.640;23.312;2023-02-20T00:25:27;93984.03;;;14.25;41.63
20037;BME280;10179;42.640;23.312;2023-02-20T00:27:53;93982.38;;;14.19;41.85
20037;BME280;10179;42.640;23.312;2023-02-20T00:30:20;93979.94;;;14.17;41.91
20037;BME280;10179;42.640;23.312;2023-02-20T00:32:47;93990.19;;;14.14;42.12
20037;BME280;10179;42.640;23.312;2023-02-20T00:35:14;93959.75;;;13.94;42.28
20037;BME280;10179;42.640;23.312;2023-02-20T00:37:39;93997.00;;;14.09;42.13
20037;BME280;10179;42.640;23.312;2023-02-20T00:40:06;93991.16;;;14.07;42.12
20037;BME280;10179;42.640;23.312;2023-02-20T00:42:32;93976.59;;;14.05;42.09
20037;BME280;10179;42.640;23.312;2023-02-20T00:44:57;93973.16;;;14.04;42.01
20037;BME280;10179;42.640;23.312;2023-02-20T00:47:23;93971.53;;;14.03;41.72
20037;BME280;10179;42.640;23.312;2023-02-20T00:49:48;93978.66;;;14.03;41.36
20037;BME280;10179;42.640;23.312;2023-02-20T00:52:14;93981.88;;;14.05;40.85
20037;BME280;10179;42.640;23.312;2023-02-20T00:54:39;93984.50;;;14.05;40.83
20037;BME280;10179;42.640;23.312;2023-02-20T00:57:05;93969.50;;;13.77;40.38
20037;BME280;10179;42.640;23.312;2023-02-20T00:59:30;93999.31;;;14.06;40.53
20037;BME280;10179;42.640;23.312;2023-02-20T01:01:55;93999.31;;;14.06;40.26
20037;BME280;10179;42.640;23.312;2023-02-20T01:04:21;93964.28;;;13.82;40.19
20037;BME280;10179;42.640;23.312;2023-02-20T01:06:46;93983.88;;;13.86;39.99
20037;BME280;10179;42.640;23.312;2023-02-20T01:09:12;94023.81;;;14.01;40.12
20037;BME280;10179;42.640;23.312;2023-02-20T01:11:40;94029.88;;;14.02;40.28
20037;BME280;10179;42.640;23.312;2023-02-20T01:14:06;94042.50;;;14.00;40.80
20037;BME280;10179;42.640;23.312;2023-02-20T01:16:32;94032.41;;;13.97;41.41
20037;BME280;10179;42.640;23.312;2023-02-20T01:18:57;93965.56;;;13.51;41.59
20037;BME280;10179;42.640;23.312;2023-02-20T01:21:23;94019.25;;;13.85;41.89
20037;BME280;10179;42.640;23.312;2023-02-20T01:23:48;94018.13;;;13.81;42.15
20037;BME280;10179;42.640;23.312;2023-02-20T01:26:14;94035.91;;;13.85;42.45
20037;BME280;10179;42.640;23.312;2023-02-20T01:28:45;94016.34;;;13.70;42.79
20037;BME280;10179;42.640;23.312;2023-02-20T01:31:13;94038.13;;;13.77;42.99
20037;BME280;10179;42.640;23.312;2023-02-20T01:33:42;94032.50;;;13.73;43.23
20037;BME280;10179;42.640;23.312;2023-02-20T01:36:09;94038.00;;;13.72;43.34
20037;BME280;10179;42.640;23.312;2023-02-20T01:38:35;93973.31;;;13.29;43.38
20037;BME280;10179;42.640;23.312;2023-02-20T01:41:01;94065.00;;;13.74;43.44
20037;BME280;10179;42.640;23.312;2023-02-20T01:43:27;94050.75;;;13.75;43.54
20037;BME280;10179;42.640;23.312;2023-02-20T01:45:52;94014.34;;;13.48;43.54
20037;BME280;10179;42.640;23.312;2023-02-20T01:48:20;94064.06;;;13.80;43.60
20037;BME280;10179;42.640;23.312;2023-02-20T01:50:47;94067.72;;;13.79;43.84
20037;BME280;10179;42.640;23.312;2023-02-20T01:53:17;94038.38;;;13.64;43.84
20037;BME280;10179;42.640;23.312;2023-02-20T01:55:58;94034.16;;;13.63;44.12
20037;BME280;10179;42.640;23.312;2023-02-20T01:58:33;94056.81;;;13.75;44.30
20037;BME280;10179;42.640;23.312;2023-02-20T02:01:00;94071.09;;;13.51;44.21
20037;BME280;10179;42.640;23.312;2023-02-20T02:03:30;94063.41;;;13.61;44.64
20037;BME280;10179;42.640;23.312;2023-02-20T02:06:02;94082.34;;;13.58;44.65
20037;BME280;10179;42.640;23.312;2023-02-20T02:08:29;94070.09;;;13.40;44.80
20037;BME280;10179;42.640;23.312;2023-02-20T02:13:29;94086.59;;;13.47;44.55
20037;BME280;10179;42.640;23.312;2023-02-20T02:18:39;94083.88;;;13.42;44.06
20037;BME280;10179;42.640;23.312;2023-02-20T02:23:47;94070.00;;;13.35;44.12
20037;BME280;10179;42.640;23.312;2023-02-20T02:35:14;94070.81;;;13.24;43.92
20037;BME280;10179;42.640;23.312;2023-02-20T02:40:42;94090.97;;;13.06;43.31
20037;BME280;10179;42.640;23.312;2023-02-20T02:43:23;94066.75;;;12.86;43.21
20037;BME280;10179;42.640;23.312;2023-02-20T02:45:54;94086.94;;;12.92;43.18
20037;BME280;10179;42.640;23.312;2023-02-20T02:50:52;93947.28;;;12.03;42.88
20037;BME280;10179;42.640;23.312;2023-02-20T02:53:21;94019.13;;;12.46;42.92
20037;BME280;10179;42.640;23.312;2023-02-20T02:55:46;94077.63;;;12.78;43.10
20037;BME280;10179;42.640;23.312;2023-02-20T02:58:13;94087.59;;;12.87;43.13
20037;BME280;10179;42.640;23.312;2023-02-20T03:00:58;94094.25;;;12.90;43.08
20037;BME280;10179;42.640;23.312;2023-02-20T03:03:32;94038.53;;;12.63;43.25
20037;BME280;10179;42.640;23.312;2023-02-20T03:06:06;94082.47;;;13.04;42.75
20037;BME280;10179;42.640;23.312;2023-02-20T03:11:07;94051.25;;;12.54;43.08
20037;BME280;10179;42.640;23.312;2023-02-20T03:13:42;94084.59;;;12.72;43.13
20037;BME280;10179;42.640;23.312;2023-02-20T03:16:34;94082.06;;;12.65;43.19
20037;BME280;10179;42.640;23.312;2023-02-20T03:19:06;94073.47;;;12.58;43.40
20037;BME280;10179;42.640;23.312;2023-02-20T03:21:43;94105.34;;;12.69;43.24
20037;BME280;10179;42.640;23.312;2023-02-20T03:24:11;94110.03;;;12.66;43.36
20037;BME280;10179;42.640;23.312;2023-02-20T03:26:39;94106.81;;;12.64;43.59
20037;BME280;10179;42.640;23.312;2023-02-20T03:29:19;94040.13;;;12.10;43.60
20037;BME280;10179;42.640;23.312;2023-02-20T03:32:06;94126.44;;;12.69;43.41
20037;BME280;10179;42.640;23.312;2023-02-20T03:34:52;94140.16;;;12.59;43.72
20037;BME280;10179;42.640;23.312;2023-02-20T03:37:39;94150.91;;;12.57;43.79
20037;BME280;10179;42.640;23.312;2023-02-20T03:40:25;94144.03;;;12.56;43.65
20037;BME280;10179;42.640;23.312;2023-02-20T03:43:13;94151.94;;;12.56;43.62
20037;BME280;10179;42.640;23.312;2023-02-20T03:46:08;94157.34;;;12.61;43.69
20037;BME280;10179;42.640;23.312;2023-02-20T03:48:45;94145.06;;;12.55;43.75
20037;BME280;10179;42.640;23.312;2023-02-20T03:51:12;94142.75;;;12.47;43.75
20037;BME280;10179;42.640;23.312;2023-02-20T03:53:57;94136.88;;;12.45;43.66
20037;BME280;10179;42.640;23.312;2023-02-20T03:56:40;94070.56;;;12.06;43.62
20037;BME280;10179;42.640;23.312;2023-02-20T03:59:13;94073.38;;;11.93;43.37
20037;BME280;10179;42.640;23.312;2023-02-20T04:01:42;94157.69;;;12.35;43.53
20037;BME280;10179;42.640;23.312;2023-02-20T04:04:13;94150.22;;;12.32;43.38
20037;BME280;10179;42.640;23.312;2023-02-20T04:06:42;94163.56;;;12.37;43.16
20037;BME280;10179;42.640;23.312;2023-02-20T04:09:13;94170.41;;;12.38;43.31
20037;BME280;10179;42.640;23.312;2023-02-20T04:11:59;94186.38;;;12.43;43.01
20037;BME280;10179;42.640;23.312;2023-02-20T04:14:28;94082.97;;;11.87;42.97
20037;BME280;10179;42.640;23.312;2023-02-20T04:16:59;94154.06;;;12.36;42.76
20037;BME280;10179;42.640;23.312;2023-02-20T04:19:26;94132.91;;;12.24;43.08
20037;BME280;10179;42.640;23.312;2023-02-20T04:21:54;94145.81;;;12.44;42.90
20037;BME280;10179;42.640;23.312;2023-02-20T04:24:41;94156.63;;;12.54;42.98
20037;BME280;10179;42.640;23.312;2023-02-20T04:27:09;94165.31;;;12.43;43.32
20037;BME280;10179;42.640;23.312;2023-02-20T04:29:36;94156.53;;;12.31;43.34
20037;BME280;10179;42.640;23.312;2023-02-20T04:32:01;94125.41;;;12.09;43.25
20037;BME280;10179;42.640;23.312;2023-02-20T04:34:27;94099.13;;;11.91;43.41
20037;BME280;10179;42.640;23.312;2023-02-20T04:37:06;94175.25;;;12.41;43.37
20037;BME280;10179;42.640;23.312;2023-02-20T04:39:32;94151.13;;;12.26;43.55
20037;BME280;10179;42.640;23.312;2023-02-20T04:41:58;94166.78;;;12.39;43.19
20037;BME280;10179;42.640;23.312;2023-02-20T04:44:23;94147.50;;;12.38;43.25
20037;BME280;10179;42.640;23.312;2023-02-20T04:47:00;94136.81;;;12.22;42.94
20037;BME280;10179;42.640;23.312;2023-02-20T04:49:26;94160.19;;;12.30;42.92
20037;BME280;10179;42.640;23.312;2023-02-20T04:51:52;94150.69;;;12.29;42.44
20037;BME280;10179;42.640;23.312;2023-02-20T04:54:17;94165.31;;;12.25;42.20
20037;BME280;10179;42.640;23.312;2023-02-20T04:56:43;94165.53;;;12.23;42.13
20037;BME280;10179;42.640;23.312;2023-02-20T04:59:09;94178.94;;;12.22;41.87
20037;BME280;10179;42.640;23.312;2023-02-20T05:01:35;94166.44;;;12.17;41.88
20037;BME280;10179;42.640;23.312;2023-02-20T05:04:00;94130.03;;;11.77;41.79
20037;BME280;10179;42.640;23.312;2023-02-20T05:06:26;94191.41;;;12.14;41.67
20037;BME280;10179;42.640;23.312;2023-02-20T05:08:51;94197.66;;;12.13;41.68
20037;BME280;10179;42.640;23.312;2023-02-20T05:11:16;94190.50;;;12.02;41.60
20037;BME280;10179;42.640;23.312;2023-02-20T05:13:42;94159.63;;;11.73;41.46
20037;BME280;10179;42.640;23.312;2023-02-20T05:16:07;94213.75;;;12.05;41.27
20037;BME280;10179;42.640;23.312;2023-02-20T05:18:33;94203.91;;;12.01;41.26
20037;BME280;10179;42.640;23.312;2023-02-20T05:20:58;94188.69;;;11.84;41.26
20037;BME280;10179;42.640;23.312;2023-02-20T05:23:45;94160.19;;;11.56;41.35
20037;BME280;10179;42.640;23.312;2023-02-20T05:26:15;94220.19;;;11.91;41.50
20037;BME280;10179;42.640;23.312;2023-02-20T05:28:42;94222.22;;;11.89;41.57
20037;BME280;10179;42.640;23.312;2023-02-20T05:31:07;93979.34;;;10.35;41.53
20037;BME280;10179;42.640;23.312;2023-02-20T05:33:33;94225.47;;;11.91;41.75
20037;BME280;10179;42.640;23.312;2023-02-20T05:35:59;94217.41;;;11.86;42.05
20037;BME280;10179;42.640;23.312;2023-02-20T05:38:24;94238.75;;;11.96;42.23
20037;BME280;10179;42.640;23.312;2023-02-20T05:40:50;94218.59;;;11.90;42.24
20037;BME280;10179;42.640;23.312;2023-02-20T05:43:16;94226.31;;;12.03;42.24
20037;BME280;10179;42.640;23.312;2023-02-20T05:45:42;94163.78;;;11.62;42.37
20037;BME280;10179;42.640;23.312;2023-02-20T05:48:07;94225.31;;;12.04;42.10
20037;BME280;10179;42.640;23.312;2023-02-20T05:50:32;94165.63;;;11.80;42.27
20037;BME280;10179;42.640;23.312;2023-02-20T05:52:58;94227.06;;;12.29;42.07
20037;BME280;10179;42.640;23.312;2023-02-20T05:55:23;94220.03;;;12.41;41.79
20037;BME280;10179;42.640;23.312;2023-02-20T05:57:49;94175.00;;;12.12;41.68
20037;BME280;10179;42.640;23.312;2023-02-20T06:00:14;94223.13;;;12.68;40.42
20037;BME280;10179;42.640;23.312;2023-02-20T06:02:40;94228.00;;;12.83;39.37
20037;BME280;10179;42.640;23.312;2023-02-20T06:05:05;94225.75;;;12.98;38.48
20037;BME280;10179;42.640;23.312;2023-02-20T06:07:32;94157.50;;;12.78;37.68
20037;BME280;10179;42.640;23.312;2023-02-20T06:09:58;94168.22;;;12.95;36.74
20037;BME280;10179;42.640;23.312;2023-02-20T06:12:23;94238.50;;;13.43;36.23
20037;BME280;10179;42.640;23.312;2023-02-20T06:14:49;94240.81;;;13.51;35.58
20037;BME280;10179;42.640;23.312;2023-02-20T06:17:14;94258.38;;;13.57;35.58
20037;BME280;10179;42.640;23.312;2023-02-20T06:19:40;94247.34;;;13.60;35.62
20037;BME280;10179;42.640;23.312;2023-02-20T06:22:05;94239.78;;;13.64;35.96
20037;BME280;10179;42.640;23.312;2023-02-20T06:24:31;94237.63;;;13.73;35.85
20037;BME280;10179;42.640;23.312;2023-02-20T06:26:56;94227.28;;;13.83;35.50
20037;BME280;10179;42.640;23.312;2023-02-20T06:29:22;94207.78;;;13.84;35.33
20037;BME280;10179;42.640;23.312;2023-02-20T06:31:48;94222.56;;;13.97;35.15
20037;BME280;10179;42.640;23.312;2023-02-20T06:34:14;94231.03;;;14.22;34.69
20037;BME280;10179;42.640;23.312;2023-02-20T06:36:41;94240.53;;;14.35;34.17
20037;BME280;10179;42.640;23.312;2023-02-20T06:39:09;94220.09;;;14.30;33.95
20037;BME280;10179;42.640;23.312;2023-02-20T06:41:35;94225.47;;;14.47;33.90
20037;BME280;10179;42.640;23.312;2023-02-20T06:44:00;94265.56;;;14.68;33.68
20037;BME280;10179;42.640;23.312;2023-02-20T06:46:26;94275.66;;;14.71;33.92
20037;BME280;10179;42.640;23.312;2023-02-20T06:48:53;94279.31;;;14.70;34.22
20037;BME280;10179;42.640;23.312;2023-02-20T06:51:23;94273.25;;;14.69;34.24
20037;BME280;10179;42.640;23.312;2023-02-20T06:53:48;94269.78;;;14.69;34.33
20037;BME280;10179;42.640;23.312;2023-02-20T06:56:20;94276.13;;;14.68;34.27
20037;BME280;10179;42.640;23.312;2023-02-20T06:58:47;94275.47;;;14.61;34.18
20037;BME280;10179;42.640;23.312;2023-02-20T07:01:13;94291.78;;;14.58;34.30
20037;BME280;10179;42.640;23.312;2023-02-20T07:03:38;94246.50;;;14.42;34.12
20037;BME280;10179;42.640;23.312;2023-02-20T07:06:04;94284.63;;;14.70;33.87
20037;BME280;10179;42.640;23.312;2023-02-20T07:08:30;94187.13;;;14.21;33.75
20037;BME280;10179;42.640;23.312;2023-02-20T07:10:55;94292.25;;;14.95;33.54
20037;BME280;10179;42.640;23.312;2023-02-20T07:13:21;94267.28;;;15.02;33.17
20037;BME280;10179;42.640;23.312;2023-02-20T07:15:47;94277.25;;;15.29;32.37
20037;BME280;10179;42.640;23.312;2023-02-20T07:18:13;94288.97;;;15.33;32.19
20037;BME280;10179;42.640;23.312;2023-02-20T07:20:38;94242.69;;;15.19;32.06
20037;BME280;10179;42.640;23.312;2023-02-20T07:23:04;94282.69;;;15.68;31.84
20037;BME280;10179;42.640;23.312;2023-02-20T07:25:29;94223.06;;;15.32;31.07
20037;BME280;10179;42.640;23.312;2023-02-20T07:27:55;94292.41;;;15.79;31.22
20037;BME280;10179;42.640;23.312;2023-02-20T07:30:20;94297.72;;;15.79;30.58
20037;BME280;10179;42.640;23.312;2023-02-20T07:32:49;94268.78;;;15.61;31.28
20037;BME280;10179;42.640;23.312;2023-02-20T07:35:14;94272.91;;;15.51;31.28
20037;BME280;10179;42.640;23.312;2023-02-20T07:37:40;94250.31;;;15.32;31.19
20037;BME280;10179;42.640;23.312;2023-02-20T07:40:06;94307.38;;;15.57;31.22
20037;BME280;10179;42.640;23.312;2023-02-20T07:42:31;94295.09;;;15.50;31.37
20037;BME280;10179;42.640;23.312;2023-02-20T07:44:57;94109.72;;;14.21;31.55
20037;BME280;10179;42.640;23.312;2023-02-20T07:47:22;94314.03;;;15.42;30.88
20037;BME280;10179;42.640;23.312;2023-02-20T07:49:47;94311.13;;;15.44;30.67
20037;BME280;10179;42.640;23.312;2023-02-20T07:52:13;94320.44;;;15.46;30.19
20037;BME280;10179;42.640;23.312;2023-02-20T07:54:38;94305.66;;;15.34;30.01
20037;BME280;10179;42.640;23.312;2023-02-20T07:57:03;94304.84;;;15.33;29.82
20037;BME280;10179;42.640;23.312;2023-02-20T07:59:29;94322.03;;;15.47;29.51
20037;BME280;10179;42.640;23.312;2023-02-20T08:01:54;94290.59;;;15.34;29.52
20037;BME280;10179;42.640;23.312;2023-02-20T08:04:20;94337.16;;;15.64;29.31
20037;BME280;10179;42.640;23.312;2023-02-20T08:06:45;94317.13;;;15.68;28.59
20037;BME280;10179;42.640;23.312;2023-02-20T08:09:10;94322.69;;;15.83;28.54
20037;BME280;10179;42.640;23.312;2023-02-20T08:11:36;94299.09;;;15.82;28.35
20037;BME280;10179;42.640;23.312;2023-02-20T08:14:03;94307.66;;;16.06;28.32
20037;BME280;10179;42.640;23.312;2023-02-20T08:16:28;94323.63;;;16.11;28.11
20037;BME280;10179;42.640;23.312;2023-02-20T08:18:54;94336.03;;;16.22;27.93
20037;BME280;10179;42.640;23.312;2023-02-20T08:21:20;94309.88;;;16.31;28.15
20037;BME280;10179;42.640;23.312;2023-02-20T08:23:46;94304.03;;;16.29;28.05
20037;BME280;10179;42.640;23.312;2023-02-20T08:26:11;94312.13;;;16.39;27.76
20037;BME280;10179;42.640;23.312;2023-02-20T08:28:37;94265.06;;;15.90;28.14
20037;BME280;10179;42.640;23.312;2023-02-20T08:31:03;94325.97;;;16.24;27.69
20037;BME280;10179;42.640;23.312;2023-02-20T08:33:29;94320.97;;;16.11;27.96
20037;BME280;10179;42.640;23.312;2023-02-20T08:35:54;94235.91;;;15.57;28.47
20037;BME280;10179;42.640;23.312;2023-02-20T08:40:51;94334.97;;;16.23;28.75
20037;BME280;10179;42.640;23.312;2023-02-20T08:43:17;94261.25;;;15.86;28.46
20037;BME280;10179;42.640;23.312;2023-02-20T08:45:42;94317.69;;;16.37;28.34
20037;BME280;10179;42.640;23.312;2023-02-20T08:48:08;94300.56;;;16.28;27.71
20037;BME280;10179;42.640;23.312;2023-02-20T08:50:33;94326.25;;;16.44;28.15
20037;BME280;10179;42.640;23.312;2023-02-20T08:52:58;94303.31;;;16.33;28.11
20037;BME280;10179;42.640;23.312;2023-02-20T08:55:24;94338.78;;;16.49;27.32
20037;BME280;10179;42.640;23.312;2023-02-20T08:57:49;94257.59;;;15.87;27.29
20037;BME280;10179;42.640;23.312;2023-02-20T09:00:15;94321.22;;;16.26;27.54
20037;BME280;10179;42.640;23.312;2023-02-20T09:02:43;94166.81;;;15.08;27.78
20037;BME280;10179;42.640;23.312;2023-02-20T09:05:10;94267.56;;;15.80;27.71
20037;BME280;10179;42.640;23.312;2023-02-20T09:07:35;94330.63;;;16.17;27.53
20037;BME280;10179;42.640;23.312;2023-02-20T09:10:01;94329.34;;;16.19;28.26
20037;BME280;10179;42.640;23.312;2023-02-20T09:12:26;94310.69;;;16.14;28.01
20037;BME280;10179;42.640;23.312;2023-02-20T09:14:51;94334.66;;;16.19;27.96
20037;BME280;10179;42.640;23.312;2023-02-20T09:17:17;94305.72;;;16.18;27.89
20037;BME280;10179;42.640;23.312;2023-02-20T09:19:42;94306.72;;;16.12;28.37
20037;BME280;10179;42.640;23.312;2023-02-20T09:22:08;94305.03;;;16.06;28.50
20037;BME280;10179;42.640;23.312;2023-02-20T09:24:33;94261.78;;;15.66;28.73
20037;BME280;10179;42.640;23.312;2023-02-20T09:27:00;94294.50;;;15.77;29.02
20037;BME280;10179;42.640;23.312;2023-02-20T09:29:26;94255.00;;;15.42;29.12
20037;BME280;10179;42.640;23.312;2023-02-20T09:31:52;94300.75;;;15.71;29.16
20037;BME280;10179;42.640;23.312;2023-02-20T09:34:18;94302.38;;;15.72;29.67
20037;BME280;10179;42.640;23.312;2023-02-20T09:36:44;94319.47;;;15.81;29.55
20037;BME280;10179;42.640;23.312;2023-02-20T09:39:09;94307.19;;;15.75;29.63
20037;BME280;10179;42.640;23.312;2023-02-20T09:46:59;94278.22;;;15.68;29.97
20037;BME280;10179;42.640;23.312;2023-02-20T09:49:29;94300.03;;;15.92;29.78
20037;BME280;10179;42.640;23.312;2023-02-20T09:52:05;94283.13;;;15.77;29.46
20037;BME280;10179;42.640;23.312;2023-02-20T09:54:49;94319.53;;;16.03;29.45
20037;BME280;10179;42.640;23.312;2023-02-20T09:57:22;94330.31;;;15.96;29.50
20037;BME280;10179;42.640;23.312;2023-02-20T09:59:52;94312.25;;;15.93;29.27
20037;BME280;10179;42.640;23.312;2023-02-20T10:02:31;94329.66;;;15.89;28.54
20037;BME280;10179;42.640;23.312;2023-02-20T10:05:02;94331.44;;;15.84;28.62
20037;BME280;10179;42.640;23.312;2023-02-20T10:07:34;94320.34;;;15.70;27.70
20037;BME280;10179;42.640;23.312;2023-02-20T10:10:16;94333.47;;;15.65;27.61
20037;BME280;10179;42.640;23.312;2023-02-20T10:16:15;94327.47;;;15.41;27.44
20037;BME280;10179;42.640;23.312;2023-02-20T10:18:53;94325.38;;;15.26;27.75
20037;BME280;10179;42.640;23.312;2023-02-20T10:21:51;94316.41;;;15.27;27.56
20037;BME280;10179;42.640;23.312;2023-02-20T10:24:48;94320.53;;;15.23;27.32
20037;BME280;10179;42.640;23.312;2023-02-20T10:27:21;94304.97;;;15.10;27.63
20037;BME280;10179;42.640;23.312;2023-02-20T10:29:50;94302.66;;;15.13;27.52
20037;BME280;10179;42.640;23.312;2023-02-20T10:32:31;94269.25;;;14.95;27.24
20037;BME280;10179;42.640;23.312;2023-02-20T10:35:21;94288.59;;;15.13;27.11
20037;BME280;10179;42.640;23.312;2023-02-20T10:37:52;94287.44;;;15.20;27.36
20037;BME280;10179;42.640;23.312;2023-02-20T10:43:27;94292.19;;;15.35;26.83
20037;BME280;10179;42.640;23.312;2023-02-20T10:46:11;94284.66;;;15.27;27.12
20037;BME280;10179;42.640;23.312;2023-02-20T10:48:38;94301.66;;;15.31;27.05
20037;BME280;10179;42.640;23.312;2023-02-20T10:51:08;94303.56;;;15.36;27.23
20037;BME280;10179;42.640;23.312;2023-02-20T10:53:58;94299.03;;;15.48;27.16
20037;BME280;10179;42.640;23.312;2023-02-20T10:56:32;94289.16;;;15.43;27.03
20037;BME280;10179;42.640;23.312;2023-02-20T10:59:19;94263.63;;;15.37;27.01
20037;BME280;10179;42.640;23.312;2023-02-20T11:01:50;94278.47;;;15.38;27.32
20037;BME280;10179;42.640;23.312;2023-02-20T11:04:19;94264.94;;;15.35;27.45
20037;BME280;10179;42.640;23.312;2023-02-20T11:06:58;94266.59;;;15.41;26.92
20037;BME280;10179;42.640;23.312;2023-02-20T11:09:24;94248.06;;;15.24;27.72
20037;BME280;10179;42.640;23.312;2023-02-20T11:11:52;94254.00;;;15.31;28.07
20037;BME280;10179;42.640;23.312;2023-02-20T11:14:31;94256.41;;;15.33;28.50
20037;BME280;10179;42.640;23.312;2023-02-20T11:17:07;94257.53;;;15.37;27.95
20037;BME280;10179;42.640;23.312;2023-02-20T11:19:40;94241.25;;;15.28;28.80
20037;BME280;10179;42.640;23.312;2023-02-20T11:22:06;94182.91;;;14.89;28.32
20037;BME280;10179;42.640;23.312;2023-02-20T11:24:32;94253.69;;;15.27;28.22
20037;BME280;10179;42.640;23.312;2023-02-20T11:27:17;94223.13;;;15.20;27.99
20037;BME280;10179;42.640;23.312;2023-02-20T11:29:50;94242.78;;;15.24;28.67
20037;BME280;10179;42.640;23.312;2023-02-20T11:34:44;94209.72;;;15.10;28.93
20037;BME280;10179;42.640;23.312;2023-02-20T11:37:11;94252.38;;;15.30;28.85
20037;BME280;10179;42.640;23.312;2023-02-20T11:39:45;94252.72;;;15.34;28.75
20037;BME280;10179;42.640;23.312;2023-02-20T11:42:16;94233.38;;;15.16;28.77
20037;BME280;10179;42.640;23.312;2023-02-20T11:44:42;94251.75;;;15.23;28.84
20037;BME280;10179;42.640;23.312;2023-02-20T11:47:20;94258.97;;;15.27;28.74
20037;BME280;10179;42.640;23.312;2023-02-20T11:49:47;94236.66;;;15.07;28.86
20037;BME280;10179;42.640;23.312;2023-02-20T11:52:21;94261.97;;;15.31;28.62
20037;BME280;10179;42.640;23.312;2023-02-20T11:54:47;94272.22;;;15.27;28.53
20037;BME280;10179;42.640;23.312;2023-02-20T11:57:41;94233.28;;;15.11;28.67
20037;BME280;10179;42.640;23.312;2023-02-20T12:05:40;94242.31;;;15.27;28.54
20037;BME280;10179;42.640;23.312;2023-02-20T12:08:30;94238.78;;;15.38;28.56
20037;BME280;10179;42.640;23.312;2023-02-20T12:11:21;94238.94;;;15.32;28.57
20037;BME280;10179;42.640;23.312;2023-02-20T12:13:52;94253.53;;;15.34;28.54
20037;BME280;10179;42.640;23.312;2023-02-20T12:16:36;94249.84;;;15.35;27.91
20037;BME280;10179;42.640;23.312;2023-02-20T12:19:18;94255.13;;;15.35;28.20
20037;BME280;10179;42.640;23.312;2023-02-20T12:29:53;94262.97;;;15.30;28.59
20037;BME280;10179;42.640;23.312;2023-02-20T12:35:04;94278.84;;;15.30;28.25
20037;BME280;10179;42.640;23.312;2023-02-20T12:54:42;94239.66;;;15.27;28.69
20037;BME280;10179;42.640;23.312;2023-02-20T12:56:59;94242.44;;;15.37;28.86
20037;BME280;10179;42.640;23.312;2023-02-20T12:59:30;94245.03;;;15.32;28.94
20037;BME280;10179;42.640;23.312;2023-02-20T13:02:11;94233.97;;;15.35;29.13
20037;BME280;10179;42.640;23.312;2023-02-20T13:04:44;94233.50;;;15.38;28.97
20037;BME280;10179;42.640;23.312;2023-02-20T13:07:20;94235.19;;;15.44;29.12
20037;BME280;10179;42.640;23.312;2023-02-20T13:12:16;94238.50;;;15.23;28.99
20037;BME280;10179;42.640;23.312;2023-02-20T13:14:54;94265.78;;;15.40;28.98
20037;BME280;10179;42.640;23.312;2023-02-20T13:20:26;94260.59;;;15.45;29.17
20037;BME280;10179;42.640;23.312;2023-02-20T13:23:03;94257.84;;;15.40;29.39
20037;BME280;10179;42.640;23.312;2023-02-20T13:28:17;94246.25;;;15.41;29.46
20037;BME280;10179;42.640;23.312;2023-02-20T13:31:13;94246.31;;;15.46;29.60
20037;BME280;10179;42.640;23.312;2023-02-20T13:39:25;94212.44;;;15.15;29.89
20037;BME280;10179;42.640;23.312;2023-02-20T13:54:55;94273.88;;;15.17;29.74
20037;BME280;10179;42.640;23.312;2023-02-20T13:57:21;94226.50;;;14.87;30.13
20037;BME280;10179;42.640;23.312;2023-02-20T13:59:51;94263.28;;;15.17;30.02
20037;BME280;10179;42.640;23.312;2023-02-20T14:02:21;94257.81;;;15.07;30.48
20037;BME280;10179;42.640;23.312;2023-02-20T14:05:04;94197.47;;;14.75;30.72
20037;BME280;10179;42.640;23.312;2023-02-20T14:07:35;94160.44;;;14.46;30.52
20037;BME280;10179;42.640;23.312;2023-02-20T14:13:10;94291.53;;;15.28;30.20
20037;BME280;10179;42.640;23.312;2023-02-20T14:15:51;94217.75;;;14.86;30.27
20037;BME280;10179;42.640;23.312;2023-02-20T14:18:32;94281.44;;;15.25;30.33
20037;BME280;10179;42.640;23.312;2023-02-20T14:23:28;94227.44;;;14.80;30.72
20037;BME280;10179;42.640;23.312;2023-02-20T14:25:57;94294.25;;;15.16;30.91
20037;BME280;10179;42.640;23.312;2023-02-20T14:28:24;94292.63;;;15.15;30.84
20037;BME280;10179;42.640;23.312;2023-02-20T14:33:31;94277.84;;;15.02;31.03
20037;BME280;10179;42.640;23.312;2023-02-20T14:36:18;94295.53;;;15.14;30.96
20037;BME280;10179;42.640;23.312;2023-02-20T14:41:36;94203.06;;;14.38;31.22
20037;BME280;10179;42.640;23.312;2023-02-20T14:44:05;94301.69;;;14.91;31.50
20037;BME280;10179;42.640;23.312;2023-02-20T14:46:38;94283.69;;;14.76;31.86
20037;BME280;10179;42.640;23.312;2023-02-20T14:49:13;94297.44;;;14.90;31.74
20037;BME280;10179;42.640;23.312;2023-02-20T14:51:40;94299.16;;;14.84;31.86
20037;BME280;10179;42.640;23.312;2023-02-20T14:54:23;94303.53;;;14.90;31.73
20037;BME280;10179;42.640;23.312;2023-02-20T14:56:50;94269.72;;;14.64;31.75